SBOSBO AMM / OJAI
Speedbird OnlineSpeedbird Online AMM / OJAI

Queen Alia International Airport
15:42 8°C

Location Amman, Jordan
Latitude: 31.7226009369
Longitude: 35.9931983948
Web Wikipedia
Altitude 730 Meter / 2395 Feet
Distance 3,647 KM / 2,266 Miles
from London.
Time Zone UTC +2 hours (Asia/Amman)
Codes IATA: AMM
ICAO: OJAI
Currency £1 equals JOD 0.88
Runways
RunwayLength (m)Surface
08L3660Asphalt
08R3660Concrete
26L3660Concrete
26R3660Asphalt
Radio
TypeDescriptionFrequency
APPAMMAN APP128.9
ATISATIS127.6
GNDGND121.9
TWRTWR119.8
Live ATC
METAR OJAI 311300Z 24012KT 5000 BR FEW011 SCT030 08/07 Q1010 NOSIG
TAF TAF OJAI 311020Z 3112/0118 25016G26KT 3000 RA BR BKN030 TEMPO 0106/0115 3000 BLDU TEMPO 0112/0118 2000 TSRA FEW030CB BKN030
Weather As Of 31 Jan 2023 15:42
Description Mist
Wind 22 km/h from South-West (240°)
Cloud Cover 40%
Precipitation Rain: none, Snow: none
Sunrise 06:30
Sunset 17:08
Lounges Royal Jordanian Crown Lounge, Main Terminal
Rotations During the last 90 days there were
74 flights from LHR
74 flights to LHR



Support Speedbird Online

© 2017-2023 Speedbird Online